Time;durP1;ratioP1;P1;durP2;ratioP2;P2;SDS_P1;SDS_P2;PMS_P1;PMS_P2;Temp;Humidity;BMP_temperature;BMP_pressure;BME280_temperature;BME280_humidity;BME280_pressure;Samples;Min_cycle;Max_cycle;Signal;HPM_P1;HPM_P2
2023/08/01 04:00:45;;;;;;;0.93;0.83;;;16.90;97.30;;;;;;5877970;23;20359;-87
2023/08/01 04:03:18;;;;;;;1.30;1.20;;;17.00;97.30;;;;;;4933764;29;20498;-87
2023/08/01 04:05:43;;;;;;;1.10;1.00;;;17.00;97.30;;;;;;4935087;29;20424;-87
2023/08/01 04:08:09;;;;;;;0.97;0.87;;;16.90;97.30;;;;;;4935036;29;20439;-87
2023/08/01 04:10:34;;;;;;;0.90;0.80;;;17.00;97.30;;;;;;4934761;29;20638;-86
2023/08/01 04:13:00;;;;;;;1.37;1.27;;;17.00;97.30;;;;;;4934772;29;20179;-88
2023/08/01 04:15:25;;;;;;;1.60;1.50;;;17.00;97.30;;;;;;4935692;29;20188;-85
2023/08/01 04:17:53;;;;;;;1.20;1.10;;;17.00;97.30;;;;;;4935315;29;20184;-87
2023/08/01 04:20:19;;;;;;;2.07;1.57;;;17.00;97.30;;;;;;4934323;29;20179;-86
2023/08/01 04:22:44;;;;;;;0.90;0.80;;;17.00;97.30;;;;;;4934920;29;20431;-88
2023/08/01 04:25:10;;;;;;;4.47;1.97;;;17.00;97.30;;;;;;4934805;29;20714;-87
2023/08/01 04:27:35;;;;;;;1.33;1.30;;;17.00;97.30;;;;;;4934242;29;20556;-85
2023/08/01 04:30:01;;;;;;;1.00;0.90;;;17.00;97.30;;;;;;4934326;29;20557;-87
2023/08/01 04:32:26;;;;;;;2.43;2.23;;;17.00;97.30;;;;;;4934062;29;20271;-86
2023/08/01 04:34:52;;;;;;;1.57;1.13;;;17.00;97.30;;;;;;4933761;29;20774;-86
2023/08/01 04:37:20;;;;;;;1.13;1.03;;;17.00;97.30;;;;;;4935580;29;20549;-86
2023/08/01 04:39:46;;;;;;;1.07;0.97;;;17.00;97.30;;;;;;4934152;29;20183;-86
2023/08/01 04:42:11;;;;;;;26.27;1.93;;;17.00;97.30;;;;;;4934429;29;20448;-87
2023/08/01 04:44:37;;;;;;;1.10;1.00;;;17.00;97.30;;;;;;4935489;29;20621;-86
2023/08/01 04:47:02;;;;;;;1.00;0.90;;;17.00;97.30;;;;;;4934271;29;20624;-87
2023/08/01 04:49:28;;;;;;;2.20;1.40;;;17.00;97.30;;;;;;4935154;29;20685;-86
2023/08/01 04:51:55;;;;;;;1.33;1.23;;;17.00;97.30;;;;;;4933989;29;20219;-86
2023/08/01 04:54:20;;;;;;;1.70;1.30;;;17.00;97.30;;;;;;4933846;29;20189;-87
2023/08/01 04:56:46;;;;;;;1.53;1.43;;;17.00;97.30;;;;;;4933867;29;20511;-88
2023/08/01 04:59:11;;;;;;;1.47;0.93;;;17.00;97.30;;;;;;4934050;29;20180;-87
2023/08/01 05:01:37;;;;;;;2.40;1.53;;;17.00;97.30;;;;;;4933846;29;20250;-86
2023/08/01 05:04:03;;;;;;;0.90;0.80;;;17.00;97.30;;;;;;4934723;29;20206;-87
2023/08/01 05:06:28;;;;;;;1.87;1.77;;;17.00;97.30;;;;;;4933942;29;20195;-86
2023/08/01 05:08:54;;;;;;;1.03;0.93;;;17.00;97.30;;;;;;4933669;29;20196;-87
2023/08/01 05:11:20;;;;;;;1.00;0.90;;;17.00;97.30;;;;;;4933882;29;20211;-87
2023/08/01 05:13:45;;;;;;;1.80;1.57;;;17.00;97.30;;;;;;4933544;29;20424;-87
2023/08/01 05:16:11;;;;;;;1.43;1.33;;;17.00;97.30;;;;;;4932947;29;20538;-86
2023/08/01 05:18:36;;;;;;;4.87;1.00;;;17.00;97.30;;;;;;4933707;29;20193;-87
2023/08/01 05:21:02;;;;;;;1.00;0.90;;;17.00;97.30;;;;;;4933437;29;20624;-86
2023/08/01 05:23:27;;;;;;;1.10;1.00;;;17.00;97.30;;;;;;4933748;29;20573;-87
2023/08/01 05:25:53;;;;;;;1.00;0.90;;;17.00;97.30;;;;;;4933183;29;20245;-86
2023/08/01 05:28:18;;;;;;;0.90;0.80;;;17.00;97.30;;;;;;4933504;29;20266;-87
2023/08/01 05:30:45;;;;;;;1.00;0.90;;;17.00;97.30;;;;;;4933042;29;20298;-86
2023/08/01 05:33:10;;;;;;;0.90;0.80;;;17.00;97.30;;;;;;4933353;29;20277;-87
2023/08/01 05:35:36;;;;;;;0.90;0.80;;;17.00;97.30;;;;;;4933138;29;20436;-86
2023/08/01 05:38:01;;;;;;;0.90;0.80;;;17.00;97.30;;;;;;4933281;29;20184;-88
2023/08/01 05:40:27;;;;;;;1.10;1.00;;;17.00;97.30;;;;;;4933193;29;20184;-87
2023/08/01 05:42:52;;;;;;;1.10;1.00;;;17.00;97.30;;;;;;4932289;29;20639;-87
2023/08/01 05:45:18;;;;;;;1.87;1.53;;;17.00;97.30;;;;;;4931888;29;20179;-87
2023/08/01 05:47:44;;;;;;;0.87;0.77;;;17.00;97.30;;;;;;4932087;29;20187;-86
2023/08/01 05:50:10;;;;;;;1.63;1.53;;;17.00;97.30;;;;;;4931829;29;20223;-88
2023/08/01 05:52:35;;;;;;;1.40;1.30;;;17.00;97.30;;;;;;4932656;29;20239;-87
2023/08/01 05:55:01;;;;;;;0.90;0.80;;;17.00;97.30;;;;;;4932791;29;20183;-88
2023/08/01 05:57:26;;;;;;;1.20;1.10;;;17.00;97.30;;;;;;4932710;29;20198;-87
2023/08/01 05:59:53;;;;;;;1.10;1.10;;;17.00;97.30;;;;;;4932623;29;20191;-88
2023/08/01 06:02:18;;;;;;;1.57;1.47;;;17.00;97.30;;;;;;4932580;29;20235;-88
2023/08/01 06:04:44;;;;;;;1.10;1.00;;;17.00;97.30;;;;;;4932696;29;20937;-88
2023/08/01 06:07:10;;;;;;;1.07;1.00;;;17.00;97.30;;;;;;4932610;29;20266;-88
2023/08/01 06:09:35;;;;;;;1.27;1.10;;;17.00;97.30;;;;;;4932684;29;20179;-86
2023/08/01 06:12:01;;;;;;;1.53;1.23;;;17.00;97.30;;;;;;4932245;29;20211;-87
2023/08/01 06:14:26;;;;;;;1.33;1.33;;;17.00;97.30;;;;;;4932301;29;20191;-87
2023/08/01 06:16:52;;;;;;;1.20;1.10;;;17.00;97.30;;;;;;4933449;29;20180;-87
2023/08/01 06:19:17;;;;;;;1.10;1.00;;;17.00;97.30;;;;;;4932433;29;20182;-87
2023/08/01 06:21:43;;;;;;;1.90;1.10;;;17.00;97.30;;;;;;4933871;29;20631;-88
2023/08/01 06:24:08;;;;;;;1.10;1.00;;;17.00;97.30;;;;;;4932969;29;20184;-88
2023/08/01 06:26:34;;;;;;;1.00;0.90;;;17.00;97.30;;;;;;4933645;29;20195;-87
2023/08/01 06:29:00;;;;;;;1.00;0.90;;;17.00;97.30;;;;;;4932375;29;20187;-88
2023/08/01 06:31:25;;;;;;;0.90;0.80;;;17.00;97.30;;;;;;4931967;29;20479;-87
2023/08/01 06:33:51;;;;;;;2.33;1.33;;;17.10;97.30;;;;;;4932168;29;20187;-88
2023/08/01 06:36:17;;;;;;;1.00;0.90;;;17.10;97.30;;;;;;4938705;29;20341;-87
2023/08/01 06:38:43;;;;;;;1.07;0.97;;;17.10;97.30;;;;;;4932198;29;20199;-87
2023/08/01 06:41:09;;;;;;;4.47;0.90;;;17.10;97.30;;;;;;4931986;29;20860;-88
2023/08/01 06:43:37;;;;;;;0.90;0.80;;;17.10;97.30;;;;;;4932100;29;20198;-88
2023/08/01 06:46:03;;;;;;;0.97;0.87;;;17.20;97.30;;;;;;4933124;29;20184;-88
2023/08/01 06:48:28;;;;;;;1.40;1.30;;;17.20;97.30;;;;;;4932384;29;20431;-87
2023/08/01 06:50:54;;;;;;;0.97;0.90;;;17.20;97.30;;;;;;4931427;29;20951;-88
2023/08/01 06:53:20;;;;;;;0.90;0.80;;;17.20;97.30;;;;;;4931906;29;20669;-89
2023/08/01 06:55:45;;;;;;;1.00;0.90;;;17.20;97.30;;;;;;4931872;29;20313;-88
2023/08/01 06:58:11;;;;;;;4.43;2.60;;;17.20;97.30;;;;;;4931398;29;20271;-85
2023/08/01 07:00:36;;;;;;;1.00;0.90;;;17.20;97.30;;;;;;4931322;29;20182;-87
2023/08/01 07:03:02;;;;;;;1.10;1.00;;;17.30;97.30;;;;;;4932922;29;20180;-87
2023/08/01 07:05:27;;;;;;;1.20;1.10;;;17.30;97.30;;;;;;4930379;29;20187;-86
2023/08/01 07:07:53;;;;;;;0.93;0.83;;;17.20;97.30;;;;;;4931772;29;20583;-88
2023/08/01 07:10:18;;;;;;;1.63;1.30;;;17.20;97.30;;;;;;4931659;29;20180;-87
2023/08/01 07:12:44;;;;;;;0.90;0.80;;;17.20;97.30;;;;;;4931489;29;20439;-88
2023/08/01 07:15:10;;;;;;;0.90;0.80;;;17.20;97.30;;;;;;4931536;29;20239;-87
2023/08/01 07:17:35;;;;;;;1.10;1.00;;;17.20;97.30;;;;;;4931744;29;20678;-87
2023/08/01 07:20:01;;;;;;;0.90;0.80;;;17.20;97.30;;;;;;4932066;29;20419;-88
2023/08/01 07:22:27;;;;;;;1.10;1.00;;;17.30;97.30;;;;;;4933210;29;20406;-87
2023/08/01 07:24:54;;;;;;;1.10;1.00;;;17.30;97.30;;;;;;4931670;29;20195;-87
2023/08/01 07:27:19;;;;;;;1.00;0.90;;;17.30;97.30;;;;;;4932514;29;20279;-87
2023/08/01 07:29:45;;;;;;;1.73;1.63;;;17.30;97.30;;;;;;4931601;29;20962;-87
2023/08/01 07:32:11;;;;;;;1.67;1.43;;;17.30;97.30;;;;;;4931364;29;20709;-87
2023/08/01 07:34:36;;;;;;;0.90;0.80;;;17.30;97.30;;;;;;4932070;29;20176;-86
2023/08/01 07:37:02;;;;;;;0.90;0.80;;;17.30;97.30;;;;;;4938515;29;20647;-89
2023/08/01 07:39:27;;;;;;;0.90;0.80;;;17.30;97.30;;;;;;4934706;29;20180;-87
2023/08/01 07:41:53;;;;;;;1.30;1.20;;;17.30;97.30;;;;;;4934893;29;20200;-89
2023/08/01 07:44:18;;;;;;;1.40;1.30;;;17.20;97.30;;;;;;4935200;29;20215;-87
2023/08/01 07:46:44;;;;;;;0.90;0.80;;;17.20;97.30;;;;;;4935101;29;20323;-88
2023/08/01 07:49:09;;;;;;;0.90;0.80;;;17.20;97.30;;;;;;4935207;29;20194;-87
2023/08/01 07:51:36;;;;;;;0.80;0.80;;;17.20;97.30;;;;;;4935132;29;20570;-88
2023/08/01 07:54:01;;;;;;;1.40;1.30;;;17.20;97.30;;;;;;4936249;29;20558;-87
2023/08/01 07:56:27;;;;;;;1.10;1.00;;;17.10;97.30;;;;;;4935121;29;20523;-88
2023/08/01 07:58:52;;;;;;;0.83;0.73;;;17.10;97.30;;;;;;4934854;29;20211;-87
2023/08/01 08:01:18;;;;;;;0.90;0.80;;;17.10;97.30;;;;;;4934620;29;20240;-87
2023/08/01 08:03:43;;;;;;;0.90;0.80;;;17.10;97.30;;;;;;4935130;29;20654;-88
2023/08/01 08:06:09;;;;;;;5.80;1.27;;;17.00;97.30;;;;;;4935055;29;20176;-88
2023/08/01 08:08:37;;;;;;;0.90;0.80;;;17.00;97.30;;;;;;4936628;29;20188;-87
2023/08/01 08:11:06;;;;;;;0.80;0.70;;;17.00;97.30;;;;;;4934524;29;20588;-88
2023/08/01 08:13:39;;;;;;;0.90;0.80;;;17.00;97.30;;;;;;4934905;29;20921;-87
2023/08/01 08:16:05;;;;;;;1.10;1.00;;;17.00;97.30;;;;;;4936824;29;20482;-88
2023/08/01 08:18:31;;;;;;;1.00;0.90;;;17.10;97.30;;;;;;4936811;29;20435;-88
2023/08/01 08:20:57;;;;;;;3.43;0.97;;;17.10;97.30;;;;;;4936925;29;20452;-88
2023/08/01 08:23:22;;;;;;;0.90;0.80;;;17.10;97.30;;;;;;4934728;29;20187;-88
2023/08/01 08:25:49;;;;;;;1.00;0.90;;;17.10;97.30;;;;;;4934483;29;20191;-88
2023/08/01 08:28:26;;;;;;;0.90;0.80;;;17.20;97.30;;;;;;4934430;29;20199;-88
2023/08/01 08:30:52;;;;;;;1.10;1.00;;;17.20;97.30;;;;;;4934347;29;20470;-88
2023/08/01 08:33:21;;;;;;;1.33;1.33;;;17.20;97.30;;;;;;4934602;29;20432;-88
2023/08/01 08:35:46;;;;;;;1.00;0.90;;;17.30;97.30;;;;;;4933894;29;20176;-87
2023/08/01 08:38:12;;;;;;;1.17;1.10;;;17.30;97.30;;;;;;4934486;29;20956;-88
2023/08/01 08:40:43;;;;;;;0.90;0.80;;;17.30;97.30;;;;;;4934420;29;20176;-88
2023/08/01 08:43:09;;;;;;;1.00;0.90;;;17.30;97.30;;;;;;4934794;29;20176;-89
2023/08/01 08:45:35;;;;;;;1.87;1.00;;;17.30;97.30;;;;;;4934920;29;20427;-89
2023/08/01 08:48:05;;;;;;;1.00;0.90;;;17.30;97.30;;;;;;4934812;29;20427;-89
2023/08/01 08:50:41;;;;;;;0.83;0.77;;;17.30;97.30;;;;;;4933703;29;20188;-89
2023/08/01 08:53:12;;;;;;;0.80;0.70;;;17.30;97.30;;;;;;4934514;29;20467;-89
2023/08/01 08:55:39;;;;;;;1.07;0.97;;;17.30;97.30;;;;;;4934885;29;20459;-88
2023/08/01 08:58:05;;;;;;;2.10;1.73;;;17.40;97.30;;;;;;4935193;29;20448;-88
2023/08/01 09:00:31;;;;;;;0.80;0.70;;;17.40;97.30;;;;;;4933998;29;20481;-88
2023/08/01 09:02:57;;;;;;;0.90;0.80;;;17.40;97.30;;;;;;4934211;29;20940;-88
2023/08/01 09:05:27;;;;;;;0.90;0.80;;;17.30;97.30;;;;;;4934668;29;20832;-88
2023/08/01 09:07:56;;;;;;;1.20;1.10;;;17.40;97.30;;;;;;4934172;29;20570;-88
2023/08/01 09:10:22;;;;;;;1.10;1.00;;;17.40;97.30;;;;;;4933977;29;20431;-89
2023/08/01 09:12:48;;;;;;;0.90;0.80;;;17.40;97.30;;;;;;4933598;29;20463;-90
2023/08/01 09:15:14;;;;;;;1.00;0.90;;;17.40;97.30;;;;;;4935344;29;20662;-88
2023/08/01 09:17:55;;;;;;;1.63;1.53;;;17.40;97.30;;;;;;4933813;29;20318;-88
2023/08/01 09:20:20;;;;;;;1.00;0.90;;;17.50;97.30;;;;;;4934749;29;20434;-87
2023/08/01 09:22:47;;;;;;;1.00;0.90;;;17.50;97.30;;;;;;4933552;29;20431;-88
2023/08/01 09:25:13;;;;;;;1.00;0.90;;;17.50;97.30;;;;;;4933401;29;20195;-88
2023/08/01 09:27:39;;;;;;;1.00;1.00;;;17.60;97.30;;;;;;4933376;29;20787;-88
2023/08/01 09:30:07;;;;;;;1.07;1.00;;;17.60;97.30;;;;;;4934619;29;20926;-89
2023/08/01 09:32:33;;;;;;;1.00;0.90;;;17.70;97.30;;;;;;4933422;29;20858;-88
2023/08/01 09:35:00;;;;;;;1.00;0.90;;;17.70;97.30;;;;;;4934350;29;21149;-88
2023/08/01 09:37:25;;;;;;;1.17;1.10;;;17.80;97.30;;;;;;4933573;29;20440;-89
2023/08/01 09:39:57;;;;;;;1.00;0.90;;;17.80;97.30;;;;;;4933034;29;20435;-89
2023/08/01 09:42:23;;;;;;;1.20;1.10;;;17.90;97.30;;;;;;4932778;29;20219;-89
2023/08/01 09:44:48;;;;;;;0.90;0.80;;;18.00;97.30;;;;;;4932587;29;20857;-89
2023/08/01 09:47:19;;;;;;;1.10;1.00;;;18.00;97.30;;;;;;4932672;29;20279;-89
2023/08/01 09:49:49;;;;;;;1.20;1.10;;;18.00;97.30;;;;;;4933508;29;20184;-89
2023/08/01 09:52:15;;;;;;;1.10;1.00;;;18.10;97.30;;;;;;4933036;29;20524;-89
2023/08/01 09:54:45;;;;;;;0.90;0.80;;;18.10;97.30;;;;;;4933606;29;20945;-89
2023/08/01 09:57:11;;;;;;;1.00;0.90;;;18.10;97.30;;;;;;4933288;29;20223;-89
2023/08/01 09:59:37;;;;;;;3.33;1.43;;;18.10;97.30;;;;;;4933481;29;20447;-89
2023/08/01 10:02:08;;;;;;;0.97;0.87;;;18.10;97.30;;;;;;4932664;29;20334;-86
2023/08/01 10:04:36;;;;;;;1.03;0.93;;;18.10;97.30;;;;;;4932977;29;20633;-88
2023/08/01 10:07:11;;;;;;;1.00;0.90;;;18.10;97.30;;;;;;4932747;29;20447;-88
2023/08/01 10:09:37;;;;;;;1.00;0.90;;;18.10;97.30;;;;;;4932697;29;20450;-88
2023/08/01 10:12:06;;;;;;;1.10;1.00;;;18.00;97.30;;;;;;4932380;29;21072;-88
2023/08/01 10:14:33;;;;;;;1.30;1.07;;;17.90;97.30;;;;;;4932826;29;20499;-88
2023/08/01 10:16:59;;;;;;;1.00;0.90;;;17.80;97.30;;;;;;4934947;29;21005;-88
2023/08/01 10:19:26;;;;;;;1.83;1.13;;;17.70;97.30;;;;;;4933301;29;20438;-88
2023/08/01 10:21:53;;;;;;;0.90;0.80;;;17.70;97.30;;;;;;4934472;29;20595;-88
2023/08/01 10:24:19;;;;;;;1.00;0.90;;;17.60;97.30;;;;;;4934463;29;20450;-87
2023/08/01 10:26:46;;;;;;;0.90;0.80;;;17.60;97.30;;;;;;4933671;29;20444;-88
2023/08/01 10:29:12;;;;;;;1.00;0.90;;;17.60;97.30;;;;;;4933683;29;20467;-88
2023/08/01 10:31:37;;;;;;;1.10;1.00;;;17.60;97.30;;;;;;4932255;29;20506;-88
2023/08/01 10:34:05;;;;;;;1.77;1.50;;;17.70;97.30;;;;;;4932290;29;20227;-89
2023/08/01 10:36:32;;;;;;;1.00;0.90;;;17.70;97.30;;;;;;4933888;29;20227;-88
2023/08/01 10:38:59;;;;;;;0.90;0.80;;;17.70;97.30;;;;;;4933878;29;20424;-89
2023/08/01 10:41:34;;;;;;;1.50;1.40;;;17.70;97.30;;;;;;4932244;29;20814;-88
2023/08/01 10:44:16;;;;;;;1.00;0.90;;;17.80;97.30;;;;;;4934306;29;20497;-85
2023/08/01 10:46:48;;;;;;;4.83;1.20;;;17.80;97.30;;;;;;4926488;29;20431;-85
2023/08/01 10:49:15;;;;;;;1.43;1.33;;;17.90;97.30;;;;;;4939289;29;20511;-85
2023/08/01 10:51:41;;;;;;;1.00;0.90;;;17.90;97.30;;;;;;4936131;29;20463;-89
2023/08/01 10:54:18;;;;;;;1.00;0.90;;;18.00;97.30;;;;;;4931578;29;20486;-89
2023/08/01 10:56:48;;;;;;;0.90;0.80;;;18.10;97.30;;;;;;4932083;29;20435;-88
2023/08/01 10:59:17;;;;;;;0.93;0.83;;;18.20;97.30;;;;;;4930910;29;20423;-88
2023/08/01 11:01:49;;;;;;;1.10;1.00;;;18.20;97.30;;;;;;4931550;29;20882;-89
2023/08/01 11:04:16;;;;;;;7.83;1.30;;;18.30;97.30;;;;;;4931835;29;20431;-89
2023/08/01 11:06:46;;;;;;;1.07;0.97;;;18.40;97.30;;;;;;4932010;29;20459;-88
2023/08/01 11:09:16;;;;;;;1.00;1.00;;;18.50;97.30;;;;;;4931745;29;20435;-89
2023/08/01 11:11:41;;;;;;;2.00;1.20;;;18.50;97.30;;;;;;4933138;29;20508;-89
2023/08/01 11:14:07;;;;;;;1.20;1.10;;;18.50;97.30;;;;;;4935515;29;20462;-88
2023/08/01 11:16:33;;;;;;;0.90;0.80;;;18.50;97.30;;;;;;4936146;29;20270;-91
2023/08/01 11:18:58;;;;;;;1.00;0.90;;;18.50;97.30;;;;;;4936238;29;20207;-89
2023/08/01 11:21:28;;;;;;;1.10;1.00;;;18.50;97.30;;;;;;4936257;29;20211;-89
2023/08/01 11:23:53;;;;;;;1.00;0.90;;;18.50;97.30;;;;;;4934955;29;20200;-90
2023/08/01 11:26:20;;;;;;;2.23;1.30;;;18.60;97.30;;;;;;4935491;29;20427;-89
2023/08/01 11:28:45;;;;;;;2.07;1.23;;;18.70;97.30;;;;;;4935991;29;20319;-90
2023/08/01 11:31:12;;;;;;;0.90;0.80;;;18.80;97.30;;;;;;4934782;29;20526;-89
2023/08/01 11:33:38;;;;;;;1.00;1.00;;;18.80;97.30;;;;;;4932465;28;20274;-90
2023/08/01 11:36:05;;;;;;;1.37;1.30;;;18.80;97.30;;;;;;4941870;29;20770;-88
2023/08/01 11:38:33;;;;;;;1.27;1.17;;;18.90;97.30;;;;;;4938042;29;20551;-88
2023/08/01 11:41:00;;;;;;;0.90;0.80;;;18.90;97.30;;;;;;4940254;29;20447;-89
2023/08/01 11:43:26;;;;;;;0.90;0.80;;;19.00;97.30;;;;;;4943187;29;20934;-89
2023/08/01 11:45:54;;;;;;;1.70;1.50;;;19.00;97.30;;;;;;4935609;29;20654;-89
2023/08/01 11:48:21;;;;;;;1.00;0.90;;;19.20;97.30;;;;;;4935186;29;20180;-89
2023/08/01 11:50:47;;;;;;;4.10;1.87;;;19.40;97.30;;;;;;4943490;29;20547;-87
2023/08/01 11:53:22;;;;;;;1.97;1.10;;;19.50;97.30;;;;;;4942019;29;20475;-89
2023/08/01 11:55:49;;;;;;;1.10;1.00;;;19.60;97.30;;;;;;4935839;29;20641;-91
2023/08/01 11:58:15;;;;;;;0.97;0.93;;;19.70;97.30;;;;;;4935802;29;20643;-90
2023/08/01 12:00:42;;;;;;;1.13;1.03;;;19.70;97.30;;;;;;4935360;29;20953;-89
2023/08/01 12:03:13;;;;;;;1.33;1.23;;;19.80;97.30;;;;;;4935844;29;20183;-91
2023/08/01 12:05:45;;;;;;;1.27;1.23;;;19.80;97.30;;;;;;4928309;29;20419;-89
2023/08/01 12:08:15;;;;;;;1.67;1.57;;;19.90;97.30;;;;;;4935841;29;20431;-89
2023/08/01 12:10:42;;;;;;;1.83;1.23;;;19.90;97.30;;;;;;4935764;29;20491;-90
2023/08/01 12:13:19;;;;;;;1.40;1.30;;;20.00;97.30;;;;;;4935449;29;20427;-91
2023/08/01 12:15:47;;;;;;;2.10;1.53;;;20.00;97.30;;;;;;4928545;29;20474;-90
2023/08/01 12:18:22;;;;;;;1.43;1.33;;;20.10;97.30;;;;;;4934499;29;20424;-89
2023/08/01 12:20:48;;;;;;;3.37;1.33;;;20.10;97.30;;;;;;4934571;29;20514;-90
2023/08/01 12:23:13;;;;;;;0.97;0.87;;;20.30;97.30;;;;;;4936057;29;20478;-89
2023/08/01 12:25:39;;;;;;;1.53;1.30;;;20.50;97.30;;;;;;4935358;29;20184;-90
2023/08/01 12:28:07;;;;;;;1.30;1.20;;;20.60;97.30;;;;;;4935912;29;20587;-91
2023/08/01 12:30:32;;;;;;;1.30;1.20;;;20.60;97.30;;;;;;4935261;29;20188;-89
2023/08/01 12:32:58;;;;;;;1.50;1.40;;;20.60;97.30;;;;;;4935510;29;20455;-90
2023/08/01 12:35:23;;;;;;;1.20;1.07;;;20.60;97.30;;;;;;4935090;29;20180;-90
2023/08/01 12:37:50;;;;;;;1.63;1.37;;;20.70;97.30;;;;;;4935138;29;20175;-89
2023/08/01 12:40:16;;;;;;;1.00;0.90;;;20.80;97.30;;;;;;4935038;29;20370;-89
2023/08/01 12:42:41;;;;;;;1.00;0.90;;;20.90;97.30;;;;;;4938589;23;20500;-81
2023/08/01 12:45:07;;;;;;;1.00;0.90;;;20.90;96.90;;;;;;4933382;29;20250;-77
2023/08/01 12:47:33;;;;;;;2.40;1.27;;;20.90;97.30;;;;;;4933378;29;20186;-78
2023/08/01 12:49:58;;;;;;;1.10;1.00;;;21.00;96.70;;;;;;4932308;29;20428;-77
2023/08/01 12:52:24;;;;;;;5.00;1.77;;;21.20;97.00;;;;;;4932003;29;20219;-76
2023/08/01 12:54:50;;;;;;;1.33;1.27;;;21.30;96.30;;;;;;4932358;29;20190;-76
2023/08/01 12:57:16;;;;;;;1.47;1.20;;;21.40;96.20;;;;;;4933476;29;20428;-76
2023/08/01 12:59:41;;;;;;;2.13;1.23;;;21.60;97.10;;;;;;4932684;29;20179;-76
2023/08/01 13:02:08;;;;;;;2.13;1.67;;;21.80;96.10;;;;;;4932380;29;20311;-74
2023/08/01 13:04:34;;;;;;;4.77;1.87;;;22.00;95.60;;;;;;4933515;29;20275;-74
2023/08/01 13:07:00;;;;;;;3.93;1.20;;;22.10;94.60;;;;;;4933510;29;20416;-77
2023/08/01 13:09:27;;;;;;;1.23;1.20;;;22.20;93.80;;;;;;4930169;29;20430;-75
2023/08/01 13:11:53;;;;;;;1.67;1.53;;;22.40;94.40;;;;;;4926602;29;20300;-75
2023/08/01 13:14:18;;;;;;;1.40;1.37;;;22.60;94.20;;;;;;4931010;29;20510;-79
2023/08/01 13:16:44;;;;;;;1.20;1.00;;;22.70;94.10;;;;;;4931164;29;20271;-73
2023/08/01 13:19:10;;;;;;;1.17;1.07;;;22.90;93.00;;;;;;4930693;29;20187;-74
2023/08/01 13:21:35;;;;;;;1.40;1.13;;;22.80;91.70;;;;;;4932283;29;20203;-77
2023/08/01 13:24:05;;;;;;;1.70;1.33;;;22.70;92.50;;;;;;4931026;29;20563;-76
2023/08/01 13:26:31;;;;;;;2.43;2.10;;;22.50;92.20;;;;;;4931047;29;20242;-75
2023/08/01 13:28:58;;;;;;;2.23;2.10;;;22.30;92.40;;;;;;4931012;29;20432;-74
2023/08/01 13:31:24;;;;;;;1.70;1.60;;;22.20;93.20;;;;;;4932580;29;20467;-73
2023/08/01 13:33:51;;;;;;;3.17;1.83;;;22.10;92.90;;;;;;4932734;29;20609;-79
2023/08/01 13:36:20;;;;;;;3.50;1.47;;;22.00;92.40;;;;;;4931996;29;20427;-72
2023/08/01 13:38:45;;;;;;;1.00;0.90;;;21.90;92.70;;;;;;4931535;29;20179;-74
2023/08/01 13:41:11;;;;;;;1.23;1.20;;;21.80;93.20;;;;;;4930914;29;20483;-73
2023/08/01 13:43:36;;;;;;;1.33;1.27;;;21.70;93.60;;;;;;4929036;29;20223;-73
2023/08/01 13:46:16;;;;;;;1.63;1.53;;;21.70;93.70;;;;;;4931092;29;20183;-74
2023/08/01 13:48:43;;;;;;;1.07;0.97;;;21.70;93.70;;;;;;4931082;28;20540;-74
2023/08/01 13:51:09;;;;;;;1.10;1.00;;;21.60;92.60;;;;;;4932209;29;20474;-74
2023/08/01 13:53:40;;;;;;;2.80;2.00;;;21.60;93.20;;;;;;4932400;29;21164;-74
2023/08/01 13:56:06;;;;;;;1.20;1.10;;;21.50;93.80;;;;;;4925936;29;20471;-75
2023/08/01 13:58:32;;;;;;;0.93;0.83;;;21.40;92.50;;;;;;4930870;29;20452;-74
2023/08/01 14:01:08;;;;;;;2.00;1.27;;;21.40;93.10;;;;;;4930666;29;20998;-76
2023/08/01 14:03:35;;;;;;;2.40;1.60;;;21.50;93.30;;;;;;4915227;29;20727;-76
2023/08/01 14:06:13;;;;;;;2.30;1.87;;;21.50;93.70;;;;;;4931710;29;20442;-75
2023/08/01 14:08:40;;;;;;;2.00;1.43;;;21.50;93.90;;;;;;4932384;29;20423;-74
2023/08/01 14:11:08;;;;;;;1.20;1.10;;;21.40;94.60;;;;;;4930759;29;20478;-74
2023/08/01 14:13:35;;;;;;;1.27;1.17;;;21.30;94.70;;;;;;4931286;29;20427;-74
2023/08/01 14:16:01;;;;;;;1.47;1.37;;;21.20;95.00;;;;;;4931272;29;20423;-75
2023/08/01 14:18:28;;;;;;;2.10;1.53;;;21.20;95.40;;;;;;4915520;29;20434;-74
2023/08/01 14:20:54;;;;;;;1.30;1.20;;;21.10;95.50;;;;;;4931041;29;20450;-76
2023/08/01 14:23:20;;;;;;;1.83;1.73;;;21.10;95.00;;;;;;4930587;29;20862;-77
2023/08/01 14:25:46;;;;;;;1.30;1.20;;;21.00;96.30;;;;;;4928374;29;20419;-74
2023/08/01 14:28:13;;;;;;;2.97;2.83;;;20.90;97.20;;;;;;4915217;29;20428;-74
2023/08/01 14:30:39;;;;;;;3.53;1.90;;;21.00;97.30;;;;;;4915254;29;20456;-74
2023/08/01 14:33:08;;;;;;;1.37;1.20;;;21.30;97.30;;;;;;4931231;29;20836;-75
2023/08/01 14:35:35;;;;;;;1.50;1.27;;;21.70;97.30;;;;;;4933345;29;20171;-73
2023/08/01 14:38:02;;;;;;;1.43;1.20;;;22.00;97.30;;;;;;4927306;29;20435;-74
2023/08/01 14:40:29;;;;;;;1.10;0.90;;;22.10;95.10;;;;;;4930614;29;20451;-76
2023/08/01 14:42:55;;;;;;;1.30;1.20;;;22.20;96.80;;;;;;4930143;29;20881;-82
2023/08/01 14:45:21;;;;;;;3.17;1.97;;;22.30;94.20;;;;;;4929944;29;20522;-77
2023/08/01 14:47:46;;;;;;;1.00;0.90;;;22.40;94.40;;;;;;4930029;29;20192;-75
2023/08/01 14:50:13;;;;;;;1.20;1.17;;;22.40;92.40;;;;;;4930312;29;20530;-76
2023/08/01 14:52:39;;;;;;;1.20;1.10;;;22.50;92.90;;;;;;4931066;29;20235;-76
2023/08/01 14:55:05;;;;;;;1.30;1.20;;;22.60;93.70;;;;;;4929188;29;20448;-74
2023/08/01 14:57:31;;;;;;;1.83;1.33;;;22.70;93.30;;;;;;4931280;29;20219;-72
2023/08/01 14:59:58;;;;;;;1.80;1.70;;;22.80;93.30;;;;;;4930460;29;20474;-73
2023/08/01 15:02:23;;;;;;;3.43;1.20;;;22.90;92.30;;;;;;4931383;29;20707;-72
2023/08/01 15:04:53;;;;;;;1.10;1.00;;;23.10;93.00;;;;;;4930118;29;20486;-73
2023/08/01 15:07:18;;;;;;;1.20;1.10;;;23.20;92.40;;;;;;4929974;29;20191;-74
2023/08/01 15:09:45;;;;;;;1.17;1.07;;;23.30;92.40;;;;;;4931743;29;20423;-72
2023/08/01 15:12:11;;;;;;;1.23;1.13;;;23.40;91.50;;;;;;4931580;29;20492;-74
2023/08/01 15:14:37;;;;;;;1.23;1.13;;;23.30;91.20;;;;;;4929988;29;20450;-73
2023/08/01 15:17:03;;;;;;;1.60;1.23;;;23.20;90.60;;;;;;4930116;29;20242;-73
2023/08/01 15:19:28;;;;;;;2.03;1.00;;;23.00;90.80;;;;;;4930286;29;20432;-72
2023/08/01 15:21:54;;;;;;;0.97;0.80;;;22.80;90.60;;;;;;4930515;29;20455;-72
2023/08/01 15:24:20;;;;;;;2.07;1.20;;;22.70;90.90;;;;;;4931661;29;20687;-75
2023/08/01 15:26:45;;;;;;;1.17;1.07;;;22.40;90.80;;;;;;4930085;29;20278;-76
2023/08/01 15:29:11;;;;;;;1.00;0.90;;;22.30;91.30;;;;;;4913389;29;20683;-77
2023/08/01 15:31:36;;;;;;;1.10;1.00;;;22.20;92.40;;;;;;4927464;29;20207;-73
2023/08/01 15:34:03;;;;;;;1.37;1.00;;;22.30;92.40;;;;;;4929377;29;20180;-73
2023/08/01 15:36:29;;;;;;;1.53;1.40;;;22.50;93.20;;;;;;4928734;29;20175;-73
2023/08/01 15:38:58;;;;;;;3.43;1.40;;;22.60;92.50;;;;;;4929956;29;20486;-74
2023/08/01 15:41:24;;;;;;;1.80;1.27;;;22.70;92.20;;;;;;4928233;29;20899;-74
2023/08/01 15:43:49;;;;;;;3.00;1.50;;;22.80;92.50;;;;;;4931520;29;20424;-74
2023/08/01 15:46:15;;;;;;;1.10;1.00;;;22.80;92.20;;;;;;4929982;29;20483;-74
2023/08/01 15:48:41;;;;;;;1.43;1.33;;;22.80;92.70;;;;;;4930017;29;20728;-74
2023/08/01 15:51:07;;;;;;;0.90;0.80;;;22.80;93.10;;;;;;4931701;29;20204;-74
2023/08/01 15:53:33;;;;;;;1.27;1.17;;;22.80;92.30;;;;;;4929969;29;20446;-77
2023/08/01 15:56:01;;;;;;;1.47;1.17;;;22.70;92.50;;;;;;4913931;29;20803;-75
2023/08/01 15:58:28;;;;;;;1.40;1.30;;;22.60;92.50;;;;;;4929701;29;20438;-74
2023/08/01 16:00:54;;;;;;;1.20;1.10;;;22.60;93.50;;;;;;4933056;29;20906;-73
2023/08/01 16:03:19;;;;;;;1.47;1.40;;;22.60;93.40;;;;;;4933423;29;20467;-82
2023/08/01 16:05:45;;;;;;;0.90;0.80;;;22.50;93.60;;;;;;4933109;29;20183;-75
2023/08/01 16:08:14;;;;;;;1.00;1.00;;;22.40;93.70;;;;;;4933270;29;20276;-76
2023/08/01 16:10:41;;;;;;;1.63;1.50;;;22.10;91.00;;;;;;4934525;29;20203;-79
2023/08/01 16:13:08;;;;;;;1.00;1.00;;;21.90;91.00;;;;;;4934292;29;20579;-74
2023/08/01 16:15:36;;;;;;;1.30;1.20;;;21.70;90.50;;;;;;4917417;29;20430;-75
2023/08/01 16:18:02;;;;;;;0.90;0.80;;;21.60;90.50;;;;;;4933010;29;20430;-77
2023/08/01 16:20:28;;;;;;;1.63;0.87;;;21.50;91.00;;;;;;4933132;29;20451;-74
2023/08/01 16:22:54;;;;;;;1.20;1.10;;;21.40;91.10;;;;;;4934708;29;20519;-74
2023/08/01 16:25:21;;;;;;;1.00;0.90;;;21.30;92.00;;;;;;4933122;29;20928;-78
2023/08/01 16:27:47;;;;;;;1.30;1.20;;;21.30;91.60;;;;;;4932830;29;20303;-75
2023/08/01 16:30:13;;;;;;;2.70;1.13;;;21.20;92.00;;;;;;4933038;29;20518;-81
2023/08/01 16:32:39;;;;;;;1.60;1.13;;;21.20;91.10;;;;;;4932568;29;20211;-79
2023/08/01 16:35:05;;;;;;;1.03;0.97;;;21.20;91.80;;;;;;4932974;29;20649;-74
2023/08/01 16:37:30;;;;;;;2.80;1.30;;;21.20;91.70;;;;;;4934067;29;20184;-77
2023/08/01 16:39:56;;;;;;;0.90;0.80;;;21.30;91.30;;;;;;4932661;29;20944;-74
2023/08/01 16:42:22;;;;;;;1.23;1.20;;;21.40;90.30;;;;;;4933404;29;20227;-73
2023/08/01 16:44:47;;;;;;;2.77;1.30;;;21.40;90.50;;;;;;4932383;29;20472;-74